Time;durP1;ratioP1;P1;durP2;ratioP2;P2;SDS_P1;SDS_P2;PMS_P1;PMS_P2;Temp;Humidity;BMP_temperature;BMP_pressure;BME280_temperature;BME280_humidity;BME280_pressure;Samples;Min_cycle;Max_cycle;Signal;HPM_P1;HPM_P2
2022/02/03 00:01:04;;;;;;;1.08;1.02;;;16.20;62.30;;;;;;4937188;28;20509;-18
2022/02/03 00:03:40;;;;;;;1.05;1.05;;;16.20;62.40;;;;;;4939944;28;20047;-18
2022/02/03 00:06:11;;;;;;;1.00;1.00;;;16.20;62.20;;;;;;4940666;28;20051;-18
2022/02/03 00:08:58;;;;;;;1.67;1.10;;;16.20;62.30;;;;;;4928942;28;20059;-18
2022/02/03 00:22:46;;;;;;;0.93;0.93;;;16.20;62.40;;;;;;4975827;28;20043;-18
2022/02/03 00:25:17;;;;;;;1.10;1.00;;;16.10;62.40;;;;;;4940465;28;20052;-18
2022/02/03 00:28:11;;;;;;;0.80;0.80;;;16.10;62.30;;;;;;4940910;28;20149;-18
2022/02/03 00:33:23;;;;;;;1.10;1.00;;;16.10;62.40;;;;;;4940435;28;20055;-18
2022/02/03 00:38:45;;;;;;;0.70;0.70;;;16.10;62.40;;;;;;4940550;28;20058;-19
2022/02/03 00:49:32;;;;;;;0.90;0.85;;;16.10;62.50;;;;;;4955944;28;20412;-18
2022/02/03 00:51:59;;;;;;;0.88;0.88;;;16.10;62.40;;;;;;4941042;28;20043;-18
2022/02/03 00:54:25;;;;;;;0.90;0.90;;;16.10;62.60;;;;;;4942891;28;20146;-18
2022/02/03 00:57:00;;;;;;;0.75;0.73;;;16.10;62.50;;;;;;4958374;28;20047;-18
2022/02/03 00:59:38;;;;;;;1.10;0.85;;;16.00;62.50;;;;;;4959260;28;20073;-18
2022/02/03 01:02:09;;;;;;;0.95;0.95;;;16.10;62.50;;;;;;4956237;28;20062;-18
2022/02/03 01:04:37;;;;;;;0.70;0.70;;;16.00;62.50;;;;;;4939443;28;20051;-18
2022/02/03 01:07:03;;;;;;;0.80;0.80;;;16.10;62.50;;;;;;4939680;28;20067;-19
2022/02/03 01:09:32;;;;;;;0.60;0.60;;;16.00;62.50;;;;;;4939418;28;20307;-18
2022/02/03 01:12:19;;;;;;;0.73;0.73;;;16.10;62.40;;;;;;4940432;28;20055;-18
2022/02/03 01:33:45;;;;;;;0.93;0.73;;;16.00;62.60;;;;;;4950747;28;20208;-18
2022/02/03 01:44:29;;;;;;;0.80;0.80;;;16.00;62.50;;;;;;4984289;28;20374;-18
2022/02/03 01:47:08;;;;;;;0.70;0.70;;;16.00;62.60;;;;;;4957614;28;20043;-18
2022/02/03 01:51:39;;;;;;;0.70;0.70;;;16.00;62.60;;;;;;4946927;28;20047;-18
2022/02/03 01:52:35;;;;;;;0.90;0.90;;;16.00;62.80;;;;;;4938039;28;20059;-18
2022/02/03 01:55:04;;;;;;;0.70;0.70;;;16.00;62.80;;;;;;4939678;28;20047;-18
2022/02/03 01:57:55;;;;;;;0.80;0.80;;;16.00;62.80;;;;;;4956014;28;20054;-18
2022/02/03 02:00:21;;;;;;;0.90;0.90;;;16.00;62.80;;;;;;4958289;28;20066;-18
2022/02/03 02:03:15;;;;;;;0.77;0.77;;;16.00;62.70;;;;;;4946341;28;20048;-18
2022/02/03 02:06:08;;;;;;;0.75;0.75;;;16.00;62.80;;;;;;4932836;28;20043;-18
2022/02/03 02:09:04;;;;;;;0.80;0.80;;;15.90;62.90;;;;;;4936537;28;20412;-18
2022/02/03 02:39:59;;;;;;;0.80;0.80;;;15.90;63.20;;;;;;4954911;28;20050;-18
2022/02/03 02:42:34;;;;;;;0.60;0.60;;;15.90;63.10;;;;;;4935617;28;20058;-18
2022/02/03 02:45:09;;;;;;;0.93;0.93;;;15.90;63.00;;;;;;4956605;28;20074;-18
2022/02/03 02:47:53;;;;;;;0.70;0.70;;;15.90;63.20;;;;;;4956879;28;20051;-18
2022/02/03 02:50:32;;;;;;;0.65;0.65;;;15.90;63.20;;;;;;4956615;28;20051;-18
2022/02/03 02:56:12;;;;;;;0.75;0.75;;;15.80;63.00;;;;;;4948669;28;20069;-18
2022/02/03 02:59:49;;;;;;;0.73;0.73;;;15.80;63.20;;;;;;4935737;28;20057;-18
2022/02/03 03:29:30;;;;;;;0.65;0.65;;;15.90;63.30;;;;;;4937194;28;20470;-18
2022/02/03 03:32:20;;;;;;;0.70;0.70;;;15.80;63.30;;;;;;4936115;28;20048;-18
2022/02/03 03:37:29;;;;;;;0.52;0.52;;;15.80;63.40;;;;;;4940943;28;20087;-18
2022/02/03 03:40:00;;;;;;;0.60;0.60;;;15.80;63.40;;;;;;4940311;28;20063;-18
2022/02/03 03:42:33;;;;;;;0.68;0.50;;;15.80;63.40;;;;;;4951411;28;20077;-18
2022/02/03 03:45:00;;;;;;;0.70;0.70;;;15.80;63.40;;;;;;4961167;28;20047;-18
2022/02/03 03:47:29;;;;;;;0.70;0.70;;;15.80;63.60;;;;;;4960222;28;20047;-18
2022/02/03 03:50:21;;;;;;;1.45;0.75;;;15.80;63.50;;;;;;4959101;28;20408;-18
2022/02/03 03:53:06;;;;;;;0.50;0.50;;;15.80;63.60;;;;;;4958102;28;20078;-18
2022/02/03 03:55:55;;;;;;;;;;;15.90;63.50;;;;;;4960627;28;20504;-18
2022/02/03 04:41:34;;;;;;;0.40;0.40;;;15.70;63.80;;;;;;4955163;28;20073;-18
2022/02/03 04:59:43;;;;;;;0.60;0.60;;;15.80;63.70;;;;;;4950929;28;20156;-18
2022/02/03 05:05:04;;;;;;;0.57;0.57;;;15.70;63.60;;;;;;4939739;28;20563;-18
2022/02/03 05:10:15;;;;;;;0.50;0.50;;;15.70;63.90;;;;;;4939624;28;20106;-18
2022/02/03 05:13:34;;;;;;;0.50;0.50;;;15.70;63.90;;;;;;4939081;28;20047;-18
2022/02/03 05:25:15;;;;;;;0.40;0.40;;;15.70;63.80;;;;;;4939041;28;20572;-18
2022/02/03 05:54:41;;;;;;;0.55;0.55;;;15.70;64.00;;;;;;4951672;28;20058;-18
2022/02/03 06:06:26;;;;;;;1.02;0.40;;;15.70;64.10;;;;;;4937123;28;20112;-18
2022/02/03 06:08:56;;;;;;;0.40;0.40;;;15.60;64.80;;;;;;4948895;28;20044;-18
2022/02/03 06:21:39;;;;;;;0.40;0.40;;;15.60;64.00;;;;;;4944214;28;20604;-18
2022/02/03 06:29:21;;;;;;;0.82;0.50;;;15.60;64.00;;;;;;4938409;28;20059;-18
2022/02/03 06:31:49;;;;;;;1.40;0.40;;;15.60;64.00;;;;;;4944201;28;20039;-18
2022/02/03 06:34:15;;;;;;;0.50;0.40;;;15.60;64.10;;;;;;4953604;28;20050;-19
2022/02/03 06:36:41;;;;;;;0.40;0.40;;;15.60;63.90;;;;;;4952254;28;20226;-18
2022/02/03 06:39:14;;;;;;;0.40;0.40;;;15.60;63.90;;;;;;4956303;28;20051;-18
2022/02/03 06:41:40;;;;;;;0.40;0.40;;;15.60;64.10;;;;;;4954646;28;20060;-18
2022/02/03 06:44:06;;;;;;;0.43;0.43;;;15.60;64.20;;;;;;4956780;28;21128;-18
2022/02/03 06:46:33;;;;;;;0.50;0.50;;;15.60;64.20;;;;;;4953018;28;20047;-18
2022/02/03 06:49:11;;;;;;;0.40;0.40;;;15.60;64.10;;;;;;4949642;28;20047;-18
2022/02/03 06:51:43;;;;;;;0.60;0.60;;;15.60;64.10;;;;;;4953970;28;20057;-18
2022/02/03 06:54:17;;;;;;;0.30;0.30;;;15.60;64.10;;;;;;4954614;28;20035;-19
2022/02/03 06:56:51;;;;;;;0.30;0.30;;;15.60;64.20;;;;;;4951768;28;20071;-18
2022/02/03 06:59:23;;;;;;;;;;;15.60;64.30;;;;;;4953354;28;20389;-18
2022/02/03 07:01:49;;;;;;;0.30;0.30;;;15.60;64.20;;;;;;4950944;28;20368;-18
2022/02/03 07:04:19;;;;;;;0.50;0.47;;;15.60;64.20;;;;;;4956756;28;20133;-18
2022/02/03 07:06:45;;;;;;;0.40;0.40;;;15.60;64.20;;;;;;4954909;28;20452;-18
2022/02/03 07:09:11;;;;;;;0.50;0.50;;;15.60;64.30;;;;;;4956149;28;20122;-18
2022/02/03 07:11:38;;;;;;;0.30;0.30;;;15.60;64.20;;;;;;4954433;28;20054;-18
2022/02/03 07:14:06;;;;;;;0.30;0.30;;;15.60;64.20;;;;;;4955431;28;20037;-18
2022/02/03 07:16:35;;;;;;;0.40;0.40;;;15.60;64.20;;;;;;4951791;28;21119;-18
2022/02/03 07:19:01;;;;;;;0.30;0.30;;;15.60;64.20;;;;;;4949456;28;20046;-18
2022/02/03 07:21:26;;;;;;;0.30;0.30;;;15.60;64.20;;;;;;4953442;28;20492;-18
2022/02/03 07:23:52;;;;;;;0.32;0.32;;;15.60;64.20;;;;;;4950107;28;20409;-18
2022/02/03 07:26:18;;;;;;;0.40;0.40;;;15.60;64.20;;;;;;4946922;28;20520;-18
2022/02/03 07:28:43;;;;;;;0.30;0.30;;;15.60;64.10;;;;;;4944362;28;20047;-18
2022/02/03 07:31:09;;;;;;;0.38;0.38;;;15.60;64.00;;;;;;4950861;28;20177;-18
2022/02/03 07:33:35;;;;;;;0.40;0.40;;;15.60;63.90;;;;;;4950357;28;20142;-18
2022/02/03 07:36:00;;;;;;;0.40;0.40;;;15.60;63.70;;;;;;4956425;28;20055;-18
2022/02/03 07:38:26;;;;;;;0.45;0.45;;;15.60;63.70;;;;;;4956578;28;20065;-19
2022/02/03 07:40:52;;;;;;;0.30;0.30;;;15.60;64.00;;;;;;4945217;28;20059;-18
2022/02/03 07:43:17;;;;;;;0.40;0.40;;;15.50;64.00;;;;;;4943608;28;20091;-19
2022/02/03 07:57:22;;;;;;;0.65;0.65;;;15.60;63.60;;;;;;4990152;28;20417;-18
2022/02/03 07:59:48;;;;;;;0.60;0.60;;;15.60;64.90;;;;;;4980265;28;20037;-18
2022/02/03 08:02:13;;;;;;;0.70;0.70;;;15.60;64.60;;;;;;4968569;28;20499;-18
2022/02/03 08:04:45;;;;;;;0.50;0.50;;;15.60;64.30;;;;;;4993136;28;20030;-18
2022/02/03 08:07:13;;;;;;;2.67;0.60;;;15.60;64.30;;;;;;4988840;28;20035;-19
2022/02/03 08:09:52;;;;;;;0.40;0.40;;;15.60;64.20;;;;;;4954698;28;20400;-18
2022/02/03 08:12:21;;;;;;;1.58;0.60;;;15.60;64.30;;;;;;4955560;28;20047;-18
2022/02/03 08:14:49;;;;;;;2.45;0.45;;;15.60;64.30;;;;;;4955596;28;20027;-18
2022/02/03 08:17:21;;;;;;;0.52;0.47;;;15.60;64.30;;;;;;4955991;28;20126;-18
2022/02/03 08:19:57;;;;;;;0.68;0.55;;;15.60;64.30;;;;;;4971201;28;20042;-18
2022/02/03 08:22:28;;;;;;;0.40;0.40;;;15.60;64.30;;;;;;4974652;28;20035;-18
2022/02/03 08:25:04;;;;;;;1.17;0.63;;;15.60;64.30;;;;;;4965285;28;20216;-18
2022/02/03 08:32:49;;;;;;;0.57;0.50;;;15.60;64.30;;;;;;4955498;28;20042;-18
2022/02/03 08:37:46;;;;;;;1.13;0.40;;;15.60;64.30;;;;;;4955603;28;20070;-19
2022/02/03 08:40:24;;;;;;;1.20;0.60;;;15.60;64.30;;;;;;4955496;28;20031;-19
2022/02/03 08:42:50;;;;;;;0.75;0.40;;;15.60;64.30;;;;;;4966524;28;20110;-18
2022/02/03 08:45:16;;;;;;;0.20;0.20;;;15.60;64.30;;;;;;4973983;28;20070;-18
2022/02/03 08:47:41;;;;;;;2.45;0.40;;;15.60;64.20;;;;;;4974405;28;20043;-19
2022/02/03 08:50:08;;;;;;;0.60;0.40;;;15.60;64.30;;;;;;4969694;28;20294;-18
2022/02/03 08:55:39;;;;;;;0.57;0.50;;;15.50;64.40;;;;;;4976761;28;20043;-19
2022/02/03 09:57:16;;;;;;;0.38;0.20;;;15.50;64.10;;;;;;4959821;28;20079;-18
2022/02/03 10:00:04;;;;;;;0.60;0.20;;;15.50;64.10;;;;;;4959853;28;20051;-19
2022/02/03 10:02:32;;;;;;;0.30;0.30;;;15.50;64.00;;;;;;4952287;28;20031;-18
2022/02/03 10:05:12;;;;;;;0.30;0.30;;;15.50;64.10;;;;;;4940898;29;20043;-18
2022/02/03 10:07:39;;;;;;;0.93;0.30;;;15.50;64.00;;;;;;4940673;28;20742;-18
2022/02/03 10:10:08;;;;;;;0.30;0.30;;;15.50;64.00;;;;;;4940235;29;20035;-19
2022/02/03 10:12:38;;;;;;;0.20;0.20;;;15.50;64.10;;;;;;4941097;28;20389;-18
2022/02/03 10:15:08;;;;;;;0.28;0.28;;;15.50;64.20;;;;;;4940915;28;20044;-18
2022/02/03 10:17:36;;;;;;;0.38;0.38;;;15.50;64.20;;;;;;4940715;29;20020;-18
2022/02/03 10:20:14;;;;;;;0.20;0.20;;;15.50;64.10;;;;;;4940594;28;20031;-18
2022/02/03 10:22:47;;;;;;;0.20;0.20;;;15.50;64.10;;;;;;4940390;28;20507;-18
2022/02/03 10:25:15;;;;;;;0.25;0.25;;;15.50;64.10;;;;;;4940741;29;20082;-18
2022/02/03 10:27:47;;;;;;;0.40;0.30;;;15.50;64.10;;;;;;4940858;28;20056;-18
2022/02/03 10:30:19;;;;;;;0.20;0.20;;;15.50;64.00;;;;;;4940221;28;20059;-19
2022/02/03 10:32:45;;;;;;;0.20;0.20;;;15.50;64.00;;;;;;4940529;29;20024;-19
2022/02/03 10:35:24;;;;;;;0.20;0.20;;;15.50;64.10;;;;;;4940546;28;20389;-18
2022/02/03 11:00:53;;;;;;;0.63;0.25;;;15.50;64.00;;;;;;4926493;29;20032;-19
2022/02/03 11:10:55;;;;;;;0.15;0.15;;;15.40;64.10;;;;;;4940029;29;20081;-18
2022/02/03 11:13:21;;;;;;;0.25;0.25;;;15.50;64.00;;;;;;4949470;29;20039;-19
2022/02/03 11:15:48;;;;;;;0.10;0.10;;;15.50;64.10;;;;;;4922628;29;20034;-18
2022/02/03 11:18:14;;;;;;;0.20;0.20;;;15.50;64.00;;;;;;4938562;29;20031;-19
2022/02/03 11:20:42;;;;;;;0.43;0.15;;;15.50;64.00;;;;;;4938248;29;20027;-18
2022/02/03 11:26:02;;;;;;;0.20;0.20;;;15.50;64.00;;;;;;4939302;29;20055;-18
2022/02/03 11:34:50;;;;;;;0.75;0.30;;;15.50;63.90;;;;;;4939465;29;20062;-18
2022/02/03 11:42:02;;;;;;;0.20;0.20;;;15.50;63.90;;;;;;4941434;29;20431;-19
2022/02/03 11:45:25;;;;;;;0.47;0.38;;;15.50;63.80;;;;;;4604351;28;10000544;-19
2022/02/03 11:53:42;;;;;;;0.20;0.20;;;15.50;64.00;;;;;;4929037;29;20054;-18
2022/02/03 12:20:40;;;;;;;0.20;0.17;;;15.50;64.00;;;;;;4949903;29;20066;-18
2022/02/03 12:26:37;;;;;;;0.20;0.20;;;15.50;64.00;;;;;;4944801;28;20091;-19
2022/02/03 12:29:21;;;;;;;0.98;0.20;;;15.50;64.30;;;;;;4950124;28;20034;-18
2022/02/03 12:43:02;;;;;;;0.30;0.30;;;15.70;64.00;;;;;;4957496;28;20178;-18
2022/02/03 12:45:15;;;;;;;0.55;0.20;;;15.60;63.90;;;;;;4952154;28;20047;-18
2022/02/03 12:47:42;;;;;;;0.13;0.13;;;15.70;63.90;;;;;;4957378;28;20039;-18
2022/02/03 12:50:13;;;;;;;0.30;0.30;;;15.60;64.20;;;;;;4958356;28;20027;-18
2022/02/03 12:52:39;;;;;;;0.20;0.20;;;15.60;64.10;;;;;;4960111;28;20144;-18
2022/02/03 12:55:07;;;;;;;0.30;0.30;;;15.60;64.00;;;;;;4970366;28;20491;-18
2022/02/03 12:57:34;;;;;;;0.20;0.20;;;15.60;64.10;;;;;;4959416;28;20051;-19
2022/02/03 13:00:14;;;;;;;0.10;0.10;;;15.60;64.20;;;;;;4940954;29;20385;-18
2022/02/03 13:02:40;;;;;;;0.25;0.25;;;15.60;64.20;;;;;;4940720;28;20259;-18
2022/02/03 13:05:06;;;;;;;0.80;0.20;;;15.60;64.30;;;;;;4941790;28;20036;-18
2022/02/03 13:07:31;;;;;;;0.30;0.30;;;15.60;64.20;;;;;;4955652;29;20036;-18
2022/02/03 13:10:09;;;;;;;0.20;0.20;;;15.60;64.20;;;;;;4959601;28;20106;-19
2022/02/03 13:12:39;;;;;;;0.20;0.20;;;15.60;64.20;;;;;;4959603;28;20035;-18
2022/02/03 13:15:07;;;;;;;0.30;0.30;;;15.60;64.20;;;;;;4951228;28;20087;-18
2022/02/03 13:17:37;;;;;;;0.20;0.20;;;15.60;63.90;;;;;;4941155;28;20070;-18
2022/02/03 13:20:18;;;;;;;0.30;0.20;;;15.60;64.00;;;;;;4941134;28;20551;-18
2022/02/03 13:22:56;;;;;;;0.20;0.20;;;15.60;64.10;;;;;;4940845;28;20049;-18
2022/02/03 13:25:33;;;;;;;0.30;0.30;;;15.60;64.30;;;;;;4941852;28;20039;-18
2022/02/03 13:31:01;;;;;;;0.20;0.20;;;15.60;64.10;;;;;;4940441;29;20051;-18
2022/02/03 13:33:38;;;;;;;0.20;0.20;;;15.60;64.00;;;;;;4942026;29;20067;-18
2022/02/03 13:36:10;;;;;;;0.17;0.15;;;15.60;64.00;;;;;;4941181;28;20064;-18
2022/02/03 13:38:55;;;;;;;0.30;0.30;;;15.60;63.90;;;;;;4941639;28;20067;-18
2022/02/03 13:41:25;;;;;;;0.95;0.10;;;15.60;63.90;;;;;;4941928;28;20382;-18
2022/02/03 13:43:51;;;;;;;0.28;0.20;;;15.60;64.00;;;;;;4940958;29;20036;-18
2022/02/03 13:46:26;;;;;;;0.30;0.30;;;15.60;63.90;;;;;;4947728;28;20625;-18
2022/02/03 13:48:51;;;;;;;0.47;0.10;;;15.60;63.90;;;;;;4965394;28;20081;-18
2022/02/03 13:51:17;;;;;;;0.30;0.20;;;15.60;64.00;;;;;;4958844;28;20495;-18
2022/02/03 13:53:52;;;;;;;0.10;0.10;;;15.60;63.90;;;;;;4958143;28;20023;-18
2022/02/03 14:28:15;;;;;;;0.30;0.13;;;15.50;64.00;;;;;;4940603;29;20058;-18
2022/02/03 14:30:45;;;;;;;0.25;0.25;;;15.50;63.90;;;;;;4949385;29;20130;-18
2022/02/03 14:33:11;;;;;;;0.10;0.10;;;15.50;64.00;;;;;;4959696;28;20503;-19
2022/02/03 14:35:38;;;;;;;1.65;0.10;;;15.50;64.00;;;;;;4959796;28;20130;-18
2022/02/03 14:38:15;;;;;;;1.42;0.10;;;15.50;64.00;;;;;;4959549;28;20041;-19
2022/02/03 14:41:21;;;;;;;0.15;0.15;;;15.50;64.00;;;;;;4947450;28;20039;-18
2022/02/03 14:43:33;;;;;;;0.20;0.17;;;15.50;64.00;;;;;;4940031;29;20040;-18
2022/02/03 14:46:01;;;;;;;0.15;0.15;;;15.50;64.00;;;;;;4938978;29;20091;-19
2022/02/03 14:48:26;;;;;;;0.28;0.13;;;15.50;64.00;;;;;;4953687;28;20035;-19
2022/02/03 14:50:55;;;;;;;0.10;0.10;;;15.50;64.20;;;;;;4937926;28;20071;-18
2022/02/03 14:53:30;;;;;;;0.20;0.20;;;15.50;64.30;;;;;;4955163;28;20043;-19
2022/02/03 14:58:40;;;;;;;0.20;0.20;;;15.50;64.30;;;;;;4956808;28;20561;-19
2022/02/03 15:01:06;;;;;;;0.10;0.10;;;15.50;64.30;;;;;;4956673;28;20047;-19
2022/02/03 15:03:32;;;;;;;0.20;0.20;;;15.50;64.30;;;;;;4954370;28;20550;-18
2022/02/03 15:06:04;;;;;;;0.45;0.20;;;15.50;64.30;;;;;;4957048;28;20114;-18
2022/02/03 15:11:12;;;;;;;0.10;0.10;;;15.60;64.20;;;;;;4953304;28;20505;-18
2022/02/03 15:13:46;;;;;;;0.30;0.20;;;15.60;64.30;;;;;;4956312;28;20055;-19
2022/02/03 15:16:12;;;;;;;;;;;15.60;64.30;;;;;;4957343;28;20058;-18
2022/02/03 15:18:38;;;;;;;2.28;0.20;;;15.60;64.60;;;;;;4958698;28;20436;-18
2022/02/03 15:21:04;;;;;;;0.10;0.10;;;15.50;64.30;;;;;;4949910;28;20087;-18
2022/02/03 15:23:30;;;;;;;0.10;0.10;;;15.60;64.30;;;;;;4937318;28;20039;-18
2022/02/03 15:25:56;;;;;;;1.83;0.22;;;15.60;64.30;;;;;;4938211;28;20051;-18
2022/02/03 15:28:21;;;;;;;0.20;0.13;;;15.60;64.30;;;;;;4937168;28;20043;-18
2022/02/03 15:30:47;;;;;;;0.20;0.20;;;15.60;64.30;;;;;;4937398;28;20047;-18
2022/02/03 15:33:13;;;;;;;0.10;0.10;;;15.60;64.30;;;;;;4944590;28;20574;-18
2022/02/03 15:35:49;;;;;;;0.20;0.20;;;15.60;64.20;;;;;;4949190;28;20142;-18
2022/02/03 15:38:18;;;;;;;0.30;0.20;;;15.60;64.20;;;;;;4937578;28;20047;-19
2022/02/03 15:40:44;;;;;;;0.22;0.20;;;15.60;64.10;;;;;;4938098;28;20048;-18
2022/02/03 15:43:23;;;;;;;0.15;0.15;;;15.60;64.00;;;;;;4937817;28;20047;-18
2022/02/03 15:45:53;;;;;;;0.65;0.30;;;15.60;64.00;;;;;;4948306;28;20047;-18
2022/02/03 16:17:33;;;;;;;0.30;0.30;;;15.60;65.10;;;;;;4958304;28;20049;-18
2022/02/03 16:20:22;;;;;;;0.10;0.10;;;15.60;64.30;;;;;;4958072;28;20066;-18
2022/02/03 16:54:41;;;;;;;0.40;0.32;;;15.50;64.50;;;;;;4961039;28;20086;-18
2022/02/03 16:57:14;;;;;;;0.40;0.40;;;15.50;64.50;;;;;;4958743;28;20051;-18
2022/02/03 16:59:49;;;;;;;0.20;0.20;;;15.50;64.50;;;;;;4957627;28;20051;-18
2022/02/03 17:02:16;;;;;;;0.40;0.40;;;15.50;64.50;;;;;;4957315;28;20062;-18
2022/02/03 17:04:41;;;;;;;0.30;0.30;;;15.50;64.40;;;;;;4957878;28;20047;-18
2022/02/03 17:07:07;;;;;;;0.28;0.20;;;15.50;64.50;;;;;;4957943;28;20090;-18
2022/02/03 17:09:33;;;;;;;0.30;0.30;;;15.50;64.50;;;;;;4957401;28;20043;-18
2022/02/03 17:11:58;;;;;;;0.20;0.20;;;15.60;64.40;;;;;;4955878;28;20054;-18
2022/02/03 17:14:27;;;;;;;0.30;0.30;;;15.50;64.40;;;;;;4956248;28;20047;-18
2022/02/03 17:16:53;;;;;;;0.20;0.20;;;15.60;64.50;;;;;;4955873;28;20504;-19
2022/02/03 17:19:21;;;;;;;0.10;0.10;;;15.60;64.40;;;;;;4958510;28;20039;-18
2022/02/03 17:21:46;;;;;;;0.30;0.30;;;15.60;64.10;;;;;;4958614;28;20050;-18
2022/02/03 17:24:12;;;;;;;0.30;0.30;;;15.60;64.20;;;;;;4958058;28;20055;-19
2022/02/03 17:27:29;;;;;;;0.30;0.30;;;15.60;64.30;;;;;;4948488;28;20047;-19
2022/02/03 17:29:45;;;;;;;0.38;0.25;;;15.60;64.50;;;;;;4952820;28;20071;-19
2022/02/03 17:32:21;;;;;;;0.82;0.40;;;15.60;64.20;;;;;;4961480;28;20042;-18
2022/02/03 18:04:43;;;;;;;2.30;2.10;;;15.60;64.50;;;;;;4952759;28;20058;-19
2022/02/03 18:31:04;;;;;;;3.42;3.05;;;15.70;64.20;;;;;;4936360;28;20102;-18
2022/02/03 18:37:10;;;;;;;3.58;3.28;;;15.70;63.80;;;;;;4952454;28;20053;-18
2022/02/03 18:48:13;;;;;;;3.38;3.10;;;15.70;63.90;;;;;;4951717;28;20097;-18
2022/02/03 18:50:17;;;;;;;3.60;3.30;;;15.80;63.70;;;;;;4953545;28;20047;-18
2022/02/03 18:55:19;;;;;;;3.35;3.15;;;15.80;63.90;;;;;;4961437;28;20061;-18
2022/02/03 18:58:08;;;;;;;2.90;2.70;;;15.70;63.80;;;;;;4942954;28;20075;-18
2022/02/03 19:00:55;;;;;;;4.40;3.22;;;15.70;63.80;;;;;;4939963;28;20404;-19
2022/02/03 19:23:02;;;;;;;3.00;2.70;;;15.70;63.80;;;;;;4952500;28;20058;-19
2022/02/03 20:10:33;;;;;;;24.25;16.17;;;15.70;63.80;;;;;;4949847;28;20047;-18
2022/02/03 20:12:58;;;;;;;27.15;14.80;;;15.70;64.00;;;;;;4952372;28;20047;-18
2022/02/03 20:15:25;;;;;;;30.13;17.30;;;15.70;64.00;;;;;;4949685;28;20098;-19
2022/02/03 20:17:51;;;;;;;25.77;16.17;;;15.80;64.10;;;;;;4951625;28;20059;-18
2022/02/03 20:20:16;;;;;;;28.38;16.52;;;15.80;63.80;;;;;;4950621;28;20109;-19
2022/02/03 20:22:42;;;;;;;25.75;15.82;;;15.70;63.90;;;;;;4951949;28;20111;-18
2022/02/03 20:25:09;;;;;;;22.15;15.52;;;15.70;64.00;;;;;;4947212;28;20043;-18
2022/02/03 20:27:34;;;;;;;23.92;15.82;;;15.80;64.00;;;;;;4949058;28;20122;-19
2022/02/03 20:30:00;;;;;;;24.73;15.52;;;15.80;63.90;;;;;;4949368;28;20067;-18
2022/02/03 20:32:28;;;;;;;24.90;15.02;;;15.80;63.90;;;;;;4948543;28;20127;-18
2022/02/03 20:34:55;;;;;;;25.30;16.00;;;15.80;63.70;;;;;;4939785;28;20053;-19
2022/02/03 20:37:21;;;;;;;23.02;15.27;;;15.80;63.80;;;;;;4950183;28;20047;-18
2022/02/03 20:39:46;;;;;;;25.45;15.00;;;15.80;63.70;;;;;;4949904;28;20045;-18
2022/02/03 20:42:15;;;;;;;21.50;13.82;;;15.80;63.70;;;;;;4951240;28;20717;-18
2022/02/03 20:44:45;;;;;;;21.60;13.30;;;15.80;63.70;;;;;;4939789;28;20044;-18
2022/02/03 20:47:11;;;;;;;20.27;14.00;;;15.80;63.70;;;;;;4951466;28;20054;-18
2022/02/03 20:49:37;;;;;;;20.05;13.63;;;15.80;63.70;;;;;;4952159;28;20051;-18
2022/02/03 20:52:03;;;;;;;21.00;13.50;;;15.80;63.80;;;;;;4952795;28;20047;-19
2022/02/03 20:54:29;;;;;;;17.60;11.95;;;15.90;63.70;;;;;;4961397;28;20137;-18
2022/02/03 20:56:54;;;;;;;19.80;13.13;;;15.90;63.70;;;;;;4951191;28;20111;-18
2022/02/03 20:59:26;;;;;;;18.45;12.95;;;15.90;63.70;;;;;;4958769;28;20035;-18
2022/02/03 21:01:55;;;;;;;20.50;13.10;;;15.90;63.90;;;;;;4956666;28;20461;-18
2022/02/03 21:04:59;;;;;;;20.40;12.73;;;15.90;63.60;;;;;;4952873;28;20051;-18
2022/02/03 21:07:13;;;;;;;17.77;12.75;;;15.90;63.70;;;;;;4954249;28;20492;-18
2022/02/03 21:09:38;;;;;;;17.08;11.60;;;15.80;63.60;;;;;;4956452;28;20110;-18
2022/02/03 21:12:04;;;;;;;18.90;12.75;;;15.80;63.60;;;;;;4958940;28;20054;-18
2022/02/03 21:14:32;;;;;;;15.63;11.57;;;15.80;63.70;;;;;;4958498;28;20044;-18
2022/02/03 21:16:58;;;;;;;15.63;11.25;;;15.80;63.60;;;;;;4956089;28;20117;-18
2022/02/03 21:19:23;;;;;;;17.25;12.00;;;15.80;64.30;;;;;;4956461;28;20042;-18
2022/02/03 21:21:49;;;;;;;18.05;12.80;;;15.80;63.40;;;;;;4957411;28;20051;-18
2022/02/03 21:24:14;;;;;;;17.13;11.82;;;15.80;63.60;;;;;;4956059;28;20031;-18
2022/02/03 21:26:41;;;;;;;16.83;11.30;;;15.80;63.40;;;;;;4956767;28;20144;-18
2022/02/03 21:29:07;;;;;;;14.30;10.60;;;15.80;63.40;;;;;;4968416;28;20050;-18
2022/02/03 21:31:32;;;;;;;14.48;10.60;;;15.80;63.50;;;;;;4957792;28;20496;-18
2022/02/03 21:33:58;;;;;;;15.10;11.30;;;15.80;63.60;;;;;;4977042;28;20049;-18
2022/02/03 21:36:26;;;;;;;15.23;10.25;;;15.80;63.50;;;;;;4977725;28;20414;-19
2022/02/03 21:38:51;;;;;;;15.93;11.30;;;15.80;63.60;;;;;;4970855;28;20054;-18
2022/02/03 21:41:17;;;;;;;13.30;10.13;;;15.80;63.50;;;;;;4977841;28;20674;-18
2022/02/03 21:43:43;;;;;;;15.27;10.85;;;15.80;63.60;;;;;;4954870;28;20052;-18
2022/02/03 21:46:10;;;;;;;12.27;9.48;;;15.80;63.60;;;;;;4952158;28;20047;-18
2022/02/03 21:48:43;;;;;;;13.25;9.57;;;15.80;63.60;;;;;;4966158;28;20047;-19
2022/02/03 21:51:09;;;;;;;13.77;10.05;;;15.80;63.60;;;;;;4958445;28;20186;-18
2022/02/03 21:53:35;;;;;;;13.02;9.18;;;15.80;63.60;;;;;;4959266;28;20071;-18
2022/02/03 21:56:01;;;;;;;11.23;8.55;;;15.80;63.60;;;;;;4976868;28;20101;-18
2022/02/03 21:58:27;;;;;;;10.90;8.60;;;15.80;63.60;;;;;;4956114;28;20051;-18
2022/02/03 22:00:56;;;;;;;9.77;8.43;;;15.80;63.50;;;;;;4938357;28;20078;-18
2022/02/03 22:03:26;;;;;;;11.73;8.68;;;15.80;63.60;;;;;;4939305;28;20086;-18
2022/02/03 22:05:51;;;;;;;11.43;8.32;;;15.80;63.60;;;;;;4938259;28;20103;-18
2022/02/03 22:08:17;;;;;;;11.27;8.55;;;15.80;63.60;;;;;;4953415;28;20042;-18
2022/02/03 22:10:42;;;;;;;10.93;8.45;;;15.80;63.60;;;;;;4955944;28;20497;-19
2022/02/03 22:13:08;;;;;;;11.05;7.93;;;15.80;63.60;;;;;;4956482;28;20168;-18
2022/02/03 22:15:34;;;;;;;9.98;8.07;;;15.80;63.80;;;;;;4956158;28;20063;-18
2022/02/03 22:18:00;;;;;;;8.60;7.70;;;15.80;63.60;;;;;;4963696;28;20564;-18
2022/02/03 22:20:34;;;;;;;8.57;7.07;;;15.80;63.60;;;;;;4961097;28;20077;-19
2022/02/03 22:23:30;;;;;;;9.60;6.80;;;15.80;63.50;;;;;;4956632;28;20047;-18
2022/02/03 22:45:00;;;;;;;7.97;7.18;;;15.80;63.50;;;;;;4956624;28;20631;-19
2022/02/03 22:50:00;;;;;;;8.32;7.25;;;15.80;63.60;;;;;;4972295;28;20050;-18
2022/02/03 22:52:25;;;;;;;8.10;6.60;;;15.70;63.80;;;;;;4976449;28;20039;-18
2022/02/03 22:54:51;;;;;;;7.65;6.35;;;15.80;63.70;;;;;;4966278;28;20047;-18
2022/02/03 22:57:17;;;;;;;6.63;5.75;;;15.80;63.70;;;;;;4976606;28;20074;-18
2022/02/03 23:02:27;;;;;;;6.53;5.95;;;15.70;63.70;;;;;;4937946;28;20047;-19
2022/02/03 23:04:52;;;;;;;6.18;5.57;;;15.70;63.60;;;;;;4937390;28;20043;-18
2022/02/03 23:07:34;;;;;;;6.18;5.57;;;15.70;63.80;;;;;;4953277;28;20050;-19
2022/02/03 23:10:14;;;;;;;6.43;5.82;;;15.70;63.70;;;;;;4971816;28;20051;-18
2022/02/03 23:15:42;;;;;;;5.80;5.20;;;15.80;63.60;;;;;;4937223;28;20050;-18
2022/02/03 23:18:24;;;;;;;6.05;5.55;;;15.80;63.60;;;;;;4937682;28;20054;-18
2022/02/03 23:23:34;;;;;;;;;;;15.70;63.70;;;;;;4937872;28;20058;-18
2022/02/03 23:26:00;;;;;;;5.60;4.97;;;15.70;63.60;;;;;;4936835;28;19923;-18
2022/02/03 23:28:33;;;;;;;5.45;4.93;;;15.80;63.60;;;;;;4937851;28;20047;-18
2022/02/03 23:30:59;;;;;;;6.03;5.50;;;15.80;63.60;;;;;;4936865;28;20043;-19
2022/02/03 23:33:26;;;;;;;6.10;5.43;;;15.80;63.60;;;;;;4937869;28;20047;-18
2022/02/03 23:35:51;;;;;;;5.40;4.82;;;15.80;63.70;;;;;;4937101;28;20510;-18
